Time;durP1;ratioP1;P1;durP2;ratioP2;P2;SDS_P1;SDS_P2;PMS_P1;PMS_P2;Temp;Humidity;BMP_temperature;BMP_pressure;BME280_temperature;BME280_humidity;BME280_pressure;Samples;Min_cycle;Max_cycle;Signal;HPM_P1;HPM_P2
2021/11/04 00:01:06;;;;;;;62.70;40.70;;;;;;;9.10;82.84;95212.63;5028786;28;20451;-62
2021/11/04 00:03:33;;;;;;;64.87;40.17;;;;;;;8.82;83.41;95215.31;5038782;28;20457;-62
2021/11/04 00:06:00;;;;;;;66.67;42.37;;;;;;;8.84;83.83;95208.03;5029981;28;20463;-64
2021/11/04 00:08:28;;;;;;;65.07;39.90;;;;;;;8.69;84.81;95223.44;5028940;28;20827;-62
2021/11/04 00:10:54;;;;;;;64.37;41.27;;;;;;;8.74;84.72;95204.47;5028908;28;20444;-62
2021/11/04 00:13:21;;;;;;;59.10;39.07;;;;;;;8.48;84.38;95234.56;5017941;28;20441;-63
2021/11/04 00:15:51;;;;;;;58.00;38.20;;;;;;;8.71;84.54;95208.34;5026539;28;20655;-62
2021/11/04 00:18:18;;;;;;;60.73;37.90;;;;;;;8.59;85.65;95218.06;5015399;28;20458;-62
2021/11/04 00:20:45;;;;;;;58.10;35.27;;;;;;;8.79;85.11;95210.56;5012179;28;20455;-65
2021/11/04 00:23:13;;;;;;;56.57;36.63;;;;;;;8.76;85.22;95195.34;5012345;28;20446;-63
2021/11/04 00:25:40;;;;;;;58.40;37.80;;;;;;;8.86;84.32;95194.72;5014379;28;20448;-62
2021/11/04 00:28:07;;;;;;;54.27;36.90;;;;;;;8.93;83.49;95214.47;5026756;28;20458;-62
2021/11/04 00:30:34;;;;;;;55.03;35.87;;;;;;;8.87;83.88;95210.16;5019534;28;20516;-63
2021/11/04 00:33:01;;;;;;;57.60;36.97;;;;;;;8.90;83.03;95219.38;5013603;28;20451;-63
2021/11/04 00:35:28;;;;;;;52.07;34.47;;;;;;;8.90;82.51;95201.06;5019457;28;20886;-62
2021/11/04 00:37:59;;;;;;;55.60;35.73;;;;;;;8.94;82.57;95217.88;5018664;28;20883;-63
2021/11/04 00:40:26;;;;;;;51.53;34.17;;;;;;;8.92;82.33;95212.09;5018739;28;20794;-62
2021/11/04 00:42:53;;;;;;;59.97;35.47;;;;;;;8.85;83.38;95209.59;5016869;28;20554;-64
2021/11/04 00:45:21;;;;;;;51.33;33.77;;;;;;;8.79;83.63;95223.63;5023644;28;20444;-62
2021/11/04 00:47:51;;;;;;;51.73;35.40;;;;;;;8.73;84.69;95216.72;5027010;28;20502;-63
2021/11/04 00:50:21;;;;;;;50.53;34.73;;;;;;;8.79;84.55;95221.03;5028801;28;20443;-62
2021/11/04 00:52:47;;;;;;;58.30;35.23;;;;;;;8.86;84.18;95213.03;5028792;28;20444;-63
2021/11/04 00:55:14;;;;;;;54.37;35.23;;;;;;;9.07;83.49;95226.16;5025151;28;20526;-62
2021/11/04 00:57:42;;;;;;;55.20;34.90;;;;;;;8.96;84.63;95221.00;5026326;28;20514;-63
2021/11/04 01:00:12;;;;;;;50.07;34.30;;;;;;;9.17;83.06;95223.72;5013901;28;20448;-63
2021/11/04 01:02:40;;;;;;;51.43;34.37;;;;;;;8.91;84.01;95224.34;5030188;28;20481;-63
2021/11/04 01:05:08;;;;;;;49.30;33.33;;;;;;;8.88;84.18;95219.59;5030829;28;20463;-64
2021/11/04 01:07:34;;;;;;;50.00;32.80;;;;;;;8.97;84.19;95223.41;5032538;28;20470;-63
2021/11/04 01:10:03;;;;;;;54.70;33.27;;;;;;;8.77;84.82;95228.31;5033235;28;20449;-62
2021/11/04 01:12:30;;;;;;;50.90;32.40;;;;;;;8.68;86.70;95208.81;5033051;28;20443;-63
2021/11/04 01:14:57;;;;;;;50.77;32.67;;;;;;;8.96;84.66;95208.75;5028935;28;20451;-63
2021/11/04 01:17:24;;;;;;;49.70;33.40;;;;;;;8.57;85.29;95217.50;5028726;28;20483;-63
2021/11/04 01:19:51;;;;;;;51.23;32.17;;;;;;;8.75;84.88;95203.44;5028987;28;20453;-63
2021/11/04 01:22:20;;;;;;;49.00;32.33;;;;;;;8.82;83.66;95212.69;5020378;28;21148;-62
2021/11/04 01:24:47;;;;;;;50.00;32.20;;;;;;;9.02;83.31;95210.41;5008189;28;21440;-63
2021/11/04 01:27:14;;;;;;;50.70;31.67;;;;;;;9.07;82.40;95192.19;5013325;28;20490;-63
2021/11/04 01:29:41;;;;;;;51.17;32.83;;;;;;;9.02;83.62;95179.06;5022048;28;20452;-63
2021/11/04 01:32:08;;;;;;;47.47;30.37;;;;;;;8.89;83.51;95189.81;5023208;28;20444;-63
2021/11/04 01:34:35;;;;;;;51.57;31.93;;;;;;;9.05;83.41;95183.78;5025794;28;20458;-64
2021/11/04 01:37:02;;;;;;;44.07;30.13;;;;;;;9.29;81.70;95200.09;5024970;28;20934;-63
2021/11/04 01:39:29;;;;;;;45.70;29.57;;;;;;;9.39;80.96;95195.03;5012213;28;20448;-63
2021/11/04 01:41:56;;;;;;;47.00;30.90;;;;;;;9.37;81.33;95198.91;5029898;28;20451;-62
2021/11/04 01:44:23;;;;;;;48.57;30.50;;;;;;;9.35;80.60;95209.59;5031668;28;20968;-63
2021/11/04 01:46:50;;;;;;;47.30;31.10;;;;;;;8.71;81.82;95203.13;5030724;28;20539;-63
2021/11/04 01:49:17;;;;;;;47.90;31.57;;;;;;;8.91;83.03;95208.66;5013587;28;20542;-66
2021/11/04 01:51:45;;;;;;;43.77;30.37;;;;;;;9.15;81.40;95210.09;5020568;28;20451;-63
2021/11/04 01:54:13;;;;;;;47.57;29.33;;;;;;;9.25;80.65;95203.44;5016915;28;20456;-62
2021/11/04 01:56:40;;;;;;;47.43;30.37;;;;;;;8.64;82.01;95197.25;5013934;28;20468;-63
2021/11/04 01:59:08;;;;;;;46.07;30.17;;;;;;;8.91;83.56;95195.59;5021937;28;20447;-63
2021/11/04 02:01:36;;;;;;;46.53;31.07;;;;;;;8.79;82.99;95189.66;5024437;28;20460;-63
2021/11/04 02:04:41;;;;;;;44.87;30.00;;;;;;;9.12;81.03;95197.50;5031005;28;20436;-63
2021/11/04 02:07:26;;;;;;;43.87;28.93;;;;;;;9.18;80.48;95208.81;5047863;28;20483;-63
2021/11/04 02:10:06;;;;;;;45.37;30.23;;;;;;;8.84;81.39;95213.25;5049054;28;21022;-63
2021/11/04 02:12:43;;;;;;;47.70;30.97;;;;;;;9.00;80.87;95199.41;5035569;28;20477;-63
2021/11/04 02:15:11;;;;;;;45.20;28.90;;;;;;;8.83;81.29;95205.66;5031118;28;20867;-63
2021/11/04 02:17:43;;;;;;;49.13;31.30;;;;;;;9.06;81.19;95215.97;5016420;28;20515;-63
2021/11/04 02:20:14;;;;;;;44.67;29.60;;;;;;;8.96;80.63;95207.94;5020020;28;20448;-63
2021/11/04 02:22:54;;;;;;;43.10;28.93;;;;;;;8.85;81.63;95214.06;5019107;28;20491;-63
2021/11/04 02:25:29;;;;;;;43.53;29.73;;;;;;;8.79;81.71;95215.81;5010593;28;20447;-62
2021/11/04 02:28:05;;;;;;;44.47;29.43;;;;;;;8.96;80.82;95216.59;5021679;28;20790;-64
2021/11/04 02:30:33;;;;;;;43.27;28.23;;;;;;;8.80;81.80;95217.38;5021579;28;20439;-62
2021/11/04 02:33:02;;;;;;;41.33;28.30;;;;;;;8.90;80.33;95225.41;5014767;28;20447;-63
2021/11/04 02:35:29;;;;;;;44.30;28.87;;;;;;;8.94;80.93;95223.88;5028618;28;20885;-62
2021/11/04 02:37:57;;;;;;;44.83;29.83;;;;;;;8.90;80.33;95233.22;5017723;28;20491;-62
2021/11/04 02:40:25;;;;;;;44.57;30.60;;;;;;;8.65;82.32;95239.84;5023370;28;20436;-64
2021/11/04 02:42:53;;;;;;;43.67;28.53;;;;;;;8.68;82.15;95224.50;5014357;28;20458;-64
2021/11/04 02:45:23;;;;;;;42.57;28.73;;;;;;;9.08;81.26;95234.81;5021422;28;20448;-64
2021/11/04 02:47:50;;;;;;;42.63;28.83;;;;;;;8.80;82.62;95233.03;5019403;28;20447;-63
2021/11/04 02:50:19;;;;;;;44.47;29.93;;;;;;;8.99;82.09;95237.03;5006918;28;20977;-67
2021/11/04 02:52:46;;;;;;;41.90;28.43;;;;;;;9.08;81.04;95243.47;5017924;28;20860;-66
2021/11/04 02:55:13;;;;;;;43.13;29.23;;;;;;;9.21;80.96;95250.97;5029477;28;20456;-63
2021/11/04 02:57:42;;;;;;;45.53;28.37;;;;;;;9.14;79.99;95229.41;5030587;28;20653;-64
2021/11/04 03:00:11;;;;;;;43.10;29.27;;;;;;;9.20;80.35;95253.81;5030714;28;20440;-64
2021/11/04 03:02:38;;;;;;;49.00;29.20;;;;;;;8.77;81.76;95257.03;5021792;28;20876;-64
2021/11/04 03:05:05;;;;;;;41.93;28.50;;;;;;;8.69;82.78;95241.75;5030536;28;20448;-64
2021/11/04 03:07:32;;;;;;;44.17;29.77;;;;;;;8.81;83.10;95263.34;5029055;28;20855;-64
2021/11/04 03:09:59;;;;;;;41.80;28.00;;;;;;;8.69;82.83;95246.97;5030746;28;20547;-64
2021/11/04 03:12:26;;;;;;;44.17;29.67;;;;;;;8.75;82.42;95266.94;5029349;28;20455;-65
2021/11/04 03:14:55;;;;;;;43.47;30.00;;;;;;;8.94;81.62;95254.47;5029904;28;20455;-65
2021/11/04 03:17:23;;;;;;;46.03;30.07;;;;;;;8.60;82.42;95264.03;5024018;28;20519;-62
2021/11/04 03:19:51;;;;;;;45.63;31.60;;;;;;;8.67;83.66;95267.31;5024783;28;20467;-63
2021/11/04 03:22:18;;;;;;;47.70;28.90;;;;;;;8.51;84.16;95282.91;5019300;28;20459;-62
2021/11/04 03:24:45;;;;;;;43.27;29.67;;;;;;;8.66;84.34;95262.31;5026383;28;20451;-62
2021/11/04 03:27:13;;;;;;;41.97;28.60;;;;;;;8.79;82.44;95264.66;5029971;28;20555;-62
2021/11/04 03:29:42;;;;;;;42.97;28.90;;;;;;;8.91;82.77;95266.16;5030531;28;20450;-62
2021/11/04 03:32:16;;;;;;;42.47;28.67;;;;;;;8.93;82.20;95279.00;5029838;28;20444;-62
2021/11/04 03:34:45;;;;;;;46.97;30.70;;;;;;;8.93;82.37;95279.78;5019151;28;20484;-63
2021/11/04 03:37:15;;;;;;;44.40;29.40;;;;;;;8.79;82.78;95267.25;5016313;28;20948;-63
2021/11/04 03:39:43;;;;;;;43.67;29.70;;;;;;;8.89;82.75;95273.44;4998803;28;20449;-63
2021/11/04 03:42:12;;;;;;;47.70;31.77;;;;;;;8.69;83.19;95257.41;5021894;28;20445;-63
2021/11/04 03:44:41;;;;;;;45.43;32.03;;;;;;;8.80;83.32;95268.81;5023153;28;20798;-63
2021/11/04 03:47:09;;;;;;;45.60;29.23;;;;;;;8.71;82.31;95265.00;5028863;28;20436;-62
2021/11/04 03:49:37;;;;;;;43.63;29.43;;;;;;;8.92;82.19;95254.66;5020675;28;20450;-63
2021/11/04 03:52:04;;;;;;;44.03;29.03;;;;;;;8.67;82.46;95263.88;5010308;28;20455;-62
2021/11/04 03:54:32;;;;;;;42.10;28.00;;;;;;;8.67;82.78;95262.06;5017599;28;20567;-63
2021/11/04 03:57:00;;;;;;;41.67;28.50;;;;;;;8.94;81.19;95265.69;5019084;28;20491;-63
2021/11/04 03:59:27;;;;;;;40.23;27.73;;;;;;;8.88;80.68;95271.88;5012202;28;20528;-63
2021/11/04 04:01:55;;;;;;;39.87;27.17;;;;;;;8.95;80.71;95263.88;5021301;28;20444;-62
2021/11/04 04:04:23;;;;;;;44.63;29.77;;;;;;;8.47;83.85;95256.47;5011544;28;20433;-62
2021/11/04 04:06:54;;;;;;;40.67;27.47;;;;;;;8.79;82.71;95243.75;5023084;28;20486;-63
2021/11/04 04:09:23;;;;;;;41.40;27.33;;;;;;;8.62;81.66;95235.88;5029783;28;20451;-63
2021/11/04 04:11:52;;;;;;;43.10;28.07;;;;;;;8.66;82.44;95268.34;5016104;28;20893;-62
2021/11/04 04:14:21;;;;;;;45.97;27.67;;;;;;;8.89;81.52;95268.22;5028314;28;20462;-62
2021/11/04 04:16:49;;;;;;;41.70;27.53;;;;;;;8.77;80.90;95264.88;5028169;28;20455;-64
2021/11/04 04:19:16;;;;;;;40.03;28.40;;;;;;;8.41;83.54;95270.47;5016825;28;20452;-63
2021/11/04 04:21:43;;;;;;;45.67;29.00;;;;;;;8.59;82.52;95269.50;5020327;28;20447;-65
2021/11/04 04:24:10;;;;;;;53.40;29.53;;;;;;;8.35;83.04;95274.03;5020285;28;20483;-62
2021/11/04 04:26:37;;;;;;;49.50;28.80;;;;;;;8.51;83.36;95260.22;5009297;28;20832;-63
2021/11/04 04:29:04;;;;;;;53.93;31.50;;;;;;;8.71;82.40;95265.81;5010673;28;20452;-64
2021/11/04 04:31:31;;;;;;;60.87;33.20;;;;;;;8.21;84.14;95260.41;5025070;28;20475;-63
2021/11/04 04:33:58;;;;;;;56.93;31.30;;;;;;;8.36;83.94;95246.09;5029125;28;20435;-62
2021/11/04 04:36:26;;;;;;;69.27;31.93;;;;;;;8.51;83.58;95265.44;5027688;28;20444;-62
2021/11/04 04:38:54;;;;;;;117.47;33.23;;;;;;;8.34;84.87;95276.88;5028633;28;20472;-63
2021/11/04 04:41:22;;;;;;;102.50;32.13;;;;;;;8.37;85.81;95279.81;5028469;28;20450;-62
2021/11/04 04:43:49;;;;;;;88.27;34.13;;;;;;;8.36;85.32;95288.66;5028424;28;20502;-62
2021/11/04 04:46:18;;;;;;;101.97;33.80;;;;;;;8.39;85.31;95288.19;5028503;28;20446;-62
2021/11/04 04:48:44;;;;;;;142.63;35.67;;;;;;;8.34;85.23;95280.25;5017153;28;20444;-63
2021/11/04 04:51:11;;;;;;;106.83;35.43;;;;;;;8.47;84.93;95289.63;5020018;28;20735;-62
2021/11/04 04:53:38;;;;;;;106.37;35.63;;;;;;;8.55;85.41;95282.25;5019637;28;20812;-63
2021/11/04 04:56:05;;;;;;;99.20;37.23;;;;;;;8.67;83.89;95287.41;5018120;28;20447;-65
2021/11/04 04:58:34;;;;;;;103.33;36.23;;;;;;;8.50;85.46;95295.22;5010222;28;20483;-64
2021/11/04 05:01:01;;;;;;;131.77;35.90;;;;;;;8.49;85.54;95298.03;5013816;28;20440;-63
2021/11/04 05:03:28;;;;;;;88.20;36.40;;;;;;;8.60;85.86;95297.19;5018757;28;20487;-63
2021/11/04 05:05:55;;;;;;;100.70;34.37;;;;;;;8.22;86.37;95292.53;5016234;28;20452;-64
2021/11/04 05:08:22;;;;;;;181.17;39.03;;;;;;;8.33;87.15;95289.13;5027999;28;20459;-63
2021/11/04 05:10:49;;;;;;;75.50;36.67;;;;;;;8.31;86.30;95291.16;5025414;28;20436;-63
2021/11/04 05:13:16;;;;;;;108.27;40.10;;;;;;;7.89;88.22;95255.81;5027286;28;20436;-63
2021/11/04 05:15:43;;;;;;;61.30;37.13;;;;;;;8.40;87.46;95281.13;5028347;28;20447;-63
2021/11/04 05:18:10;;;;;;;74.30;33.77;;;;;;;8.24;86.54;95280.06;5027929;28;20479;-63
2021/11/04 05:20:38;;;;;;;75.47;33.10;;;;;;;8.41;87.22;95282.75;5028209;28;20452;-63
2021/11/04 05:23:06;;;;;;;78.10;35.53;;;;;;;8.28;87.27;95270.75;5026141;28;20446;-63
2021/11/04 05:25:33;;;;;;;94.03;35.07;;;;;;;8.17;87.77;95285.38;5029355;28;20447;-64
2021/11/04 05:28:00;;;;;;;77.63;34.30;;;;;;;8.10;87.33;95276.88;5028340;28;20574;-62
2021/11/04 05:30:27;;;;;;;118.90;35.70;;;;;;;8.19;87.66;95287.78;5029836;28;20440;-62
2021/11/04 05:32:54;;;;;;;91.77;34.00;;;;;;;8.33;87.56;95283.91;5029313;28;20448;-64
2021/11/04 05:35:21;;;;;;;81.20;33.77;;;;;;;8.28;87.39;95286.41;5027795;28;20440;-64
2021/11/04 05:37:48;;;;;;;62.33;33.37;;;;;;;8.47;87.04;95285.22;5028022;28;20535;-63
2021/11/04 05:40:15;;;;;;;80.10;35.03;;;;;;;8.51;87.63;95307.22;5027785;28;20450;-63
2021/11/04 05:42:42;;;;;;;760.53;111.27;;;;;;;8.55;87.62;95291.88;5018774;28;20538;-64
2021/11/04 05:45:09;;;;;;;201.33;106.30;;;;;;;8.61;86.56;95286.50;5023511;28;20439;-64
2021/11/04 05:47:36;;;;;;;89.67;35.37;;;;;;;8.66;85.94;95286.63;5028587;28;20798;-63
2021/11/04 05:50:04;;;;;;;67.10;34.47;;;;;;;8.43;86.27;95284.06;5029815;28;20455;-63
2021/11/04 05:52:31;;;;;;;62.10;32.73;;;;;;;8.33;87.98;95315.22;5018242;28;20443;-62
2021/11/04 05:54:58;;;;;;;63.03;35.43;;;;;;;8.52;86.71;95298.34;5031392;28;20447;-63
2021/11/04 05:57:25;;;;;;;160.67;114.87;;;;;;;8.83;86.56;95303.13;5031320;28;21134;-64
2021/11/04 05:59:52;;;;;;;163.53;96.23;;;;;;;8.99;85.91;95306.81;5031724;28;20586;-65
2021/11/04 06:02:19;;;;;;;91.80;55.13;;;;;;;9.02;86.57;95316.78;5030617;28;20969;-64
2021/11/04 06:04:46;;;;;;;61.93;34.83;;;;;;;8.94;85.50;95307.50;5021228;28;20859;-64
2021/11/04 06:07:14;;;;;;;59.03;35.03;;;;;;;8.94;85.92;95312.72;5013257;28;20469;-63
2021/11/04 06:09:41;;;;;;;61.13;35.67;;;;;;;8.98;86.26;95329.53;5030965;28;20498;-63
2021/11/04 06:12:09;;;;;;;59.00;35.60;;;;;;;8.71;87.79;95344.19;5031214;28;20444;-63
2021/11/04 06:14:36;;;;;;;57.17;34.70;;;;;;;8.67;88.23;95373.59;5031115;28;20601;-64
2021/11/04 06:17:03;;;;;;;64.00;37.50;;;;;;;8.96;90.32;95368.16;5030860;28;20458;-63
2021/11/04 06:19:30;;;;;;;58.37;35.13;;;;;;;9.08;88.26;95375.97;5030862;28;20448;-63
2021/11/04 06:21:57;;;;;;;63.93;37.57;;;;;;;9.19;89.72;95372.50;5030408;28;20448;-66
2021/11/04 06:24:24;;;;;;;52.33;33.73;;;;;;;9.56;88.15;95357.19;5031075;28;20448;-64
2021/11/04 06:26:51;;;;;;;64.13;38.07;;;;;;;9.66;88.66;95370.41;5024187;28;20484;-63
2021/11/04 06:29:18;;;;;;;60.13;37.70;;;;;;;9.84;86.32;95365.75;5025648;28;20436;-66
2021/11/04 06:31:45;;;;;;;65.03;38.73;;;;;;;10.04;86.85;95354.78;5030091;28;20463;-64
2021/11/04 06:34:12;;;;;;;50.40;31.90;;;;;;;10.16;85.41;95343.19;5029370;28;20540;-63
2021/11/04 06:36:39;;;;;;;49.17;31.27;;;;;;;10.24;85.43;95347.22;5029963;28;21067;-64
2021/11/04 06:39:06;;;;;;;48.63;31.60;;;;;;;10.43;83.92;95353.78;5030856;28;20490;-63
2021/11/04 06:41:33;;;;;;;48.23;32.10;;;;;;;10.43;84.28;95326.78;5028278;28;20783;-63
2021/11/04 06:44:00;;;;;;;51.77;33.30;;;;;;;10.53;84.53;95355.75;5030668;28;20443;-64
2021/11/04 06:46:31;;;;;;;48.00;32.37;;;;;;;10.67;83.48;95328.91;5030003;28;20455;-64
2021/11/04 06:49:09;;;;;;;45.27;29.07;;;;;;;10.55;82.94;95341.34;5010993;28;20441;-63
2021/11/04 06:51:41;;;;;;;47.77;31.83;;;;;;;10.77;82.98;95326.41;5010586;28;20456;-64
2021/11/04 06:54:13;;;;;;;47.43;32.43;;;;;;;10.86;82.93;95337.22;5018721;28;20448;-64
2021/11/04 06:56:45;;;;;;;45.47;31.80;;;;;;;10.95;82.49;95341.81;5018205;28;20490;-64
2021/11/04 06:59:19;;;;;;;63.10;41.73;;;;;;;11.23;81.66;95338.94;5010647;28;20574;-65
2021/11/04 07:01:59;;;;;;;51.50;31.47;;;;;;;11.17;82.53;95366.16;5025582;28;20460;-64
2021/11/04 07:04:35;;;;;;;54.17;38.13;;;;;;;11.56;81.26;95340.56;5011948;28;20468;-64
2021/11/04 07:09:41;;;;;;;41.57;27.53;;;;;;;11.71;80.31;95355.66;5022518;28;20449;-64
2021/11/04 07:12:10;;;;;;;42.13;28.27;;;;;;;11.65;79.57;95354.03;5024903;28;20538;-64
2021/11/04 07:14:40;;;;;;;42.97;28.57;;;;;;;11.95;78.58;95351.66;5030463;28;20443;-63
2021/11/04 07:17:10;;;;;;;37.90;26.37;;;;;;;12.05;78.27;95354.31;5029579;28;20440;-64
2021/11/04 07:19:38;;;;;;;38.50;25.43;;;;;;;11.88;77.73;95348.41;5013026;28;20610;-64
2021/11/04 07:22:21;;;;;;;36.00;25.43;;;;;;;12.09;77.54;95368.53;5019344;28;20450;-64
2021/11/04 07:25:15;;;;;;;34.23;24.23;;;;;;;12.06;76.03;95363.81;5016330;28;20466;-65
2021/11/04 07:27:59;;;;;;;35.33;24.07;;;;;;;12.29;76.93;95368.66;5029911;28;20502;-64
2021/11/04 07:30:28;;;;;;;33.90;24.40;;;;;;;12.32;76.91;95362.91;5022090;28;20452;-64
2021/11/04 07:32:56;;;;;;;35.37;24.53;;;;;;;12.57;75.90;95344.63;5024122;28;20436;-63
2021/11/04 07:35:29;;;;;;;38.57;24.50;;;;;;;12.73;75.70;95362.06;5030058;28;20446;-63
2021/11/04 07:37:57;;;;;;;35.03;25.00;;;;;;;12.94;74.76;95349.75;5015939;28;20489;-64
2021/11/04 07:40:26;;;;;;;32.53;24.13;;;;;;;12.78;75.37;95361.28;5016414;28;20972;-65
2021/11/04 07:42:54;;;;;;;32.57;24.30;;;;;;;12.86;72.30;95356.34;5029243;28;20451;-64
2021/11/04 07:45:22;;;;;;;34.13;24.10;;;;;;;13.12;71.93;95368.53;5015612;28;21010;-64
2021/11/04 07:47:49;;;;;;;37.20;23.80;;;;;;;13.59;71.24;95351.78;5029095;28;20436;-63
2021/11/04 07:50:20;;;;;;;31.77;24.13;;;;;;;13.31;73.25;95355.69;5029225;28;21033;-63
2021/11/04 07:52:47;;;;;;;38.33;25.50;;;;;;;13.34;71.58;95364.91;5029239;28;20452;-64
2021/11/04 07:55:15;;;;;;;35.33;24.97;;;;;;;13.58;70.38;95358.06;5013700;28;20445;-63
2021/11/04 07:57:43;;;;;;;39.93;29.67;;;;;;;13.92;71.03;95345.97;5017032;28;20435;-64
2021/11/04 08:00:12;;;;;;;39.27;29.90;;;;;;;13.61;71.84;95339.91;5014726;28;20484;-66
2021/11/04 08:02:40;;;;;;;43.50;32.00;;;;;;;14.08;71.28;95342.28;5016036;28;20547;-64
2021/11/04 08:05:12;;;;;;;39.87;28.40;;;;;;;14.43;67.74;95358.06;5016402;28;20452;-64
2021/11/04 08:07:40;;;;;;;41.77;29.00;;;;;;;14.71;68.17;95354.78;5008588;28;20476;-63
2021/11/04 08:10:13;;;;;;;39.80;29.57;;;;;;;14.61;69.12;95354.84;5021433;28;20454;-64
2021/11/04 08:12:40;;;;;;;36.70;26.67;;;;;;;13.95;67.77;95358.63;5027984;28;20455;-63
2021/11/04 08:15:09;;;;;;;33.77;24.20;;;;;;;14.50;65.47;95358.56;5029083;28;20836;-64
2021/11/04 08:17:36;;;;;;;37.93;24.60;;;;;;;14.57;65.79;95353.00;5027762;28;20491;-64
2021/11/04 08:20:07;;;;;;;30.93;24.33;;;;;;;14.59;66.45;95333.22;5028497;28;20443;-64
2021/11/04 08:22:34;;;;;;;32.50;25.33;;;;;;;15.39;65.27;95349.69;5029171;28;20976;-63
2021/11/04 08:25:04;;;;;;;35.77;25.07;;;;;;;15.54;64.18;95347.00;5029029;28;20847;-63
2021/11/04 08:27:32;;;;;;;31.53;22.03;;;;;;;15.65;63.38;95359.06;5028181;28;20443;-67
2021/11/04 08:30:00;;;;;;;28.97;19.27;;;;;;;15.63;60.80;95355.91;5029138;28;20467;-64
2021/11/04 08:32:27;;;;;;;29.43;19.63;;;;;;;15.68;60.75;95350.59;5018206;28;20453;-63
2021/11/04 08:34:54;;;;;;;23.97;18.43;;;;;;;15.54;61.22;95357.56;5025877;28;20448;-64
2021/11/04 08:37:21;;;;;;;26.03;20.43;;;;;;;16.29;59.74;95359.59;5019633;28;20809;-64
2021/11/04 08:39:48;;;;;;;24.67;18.90;;;;;;;16.08;59.07;95331.75;5023986;28;20487;-66
2021/11/04 08:42:16;;;;;;;29.70;19.80;;;;;;;16.55;59.30;95342.41;5028449;28;20486;-64
2021/11/04 08:44:43;;;;;;;31.13;19.87;;;;;;;16.35;59.77;95341.81;5015725;28;20445;-64
2021/11/04 08:47:10;;;;;;;30.57;20.60;;;;;;;16.51;59.75;95346.69;5028278;28;20443;-64
2021/11/04 08:49:38;;;;;;;26.83;20.77;;;;;;;16.40;57.84;95342.56;5017622;28;20951;-64
2021/11/04 08:52:07;;;;;;;31.90;20.90;;;;;;;16.84;59.51;95351.06;5025868;28;20444;-65
2021/11/04 08:54:35;;;;;;;25.67;19.13;;;;;;;17.30;58.26;95345.22;5018452;28;20478;-65
2021/11/04 08:57:02;;;;;;;27.47;19.23;;;;;;;16.69;60.69;95345.97;5022098;28;20456;-63
2021/11/04 08:59:29;;;;;;;24.47;17.63;;;;;;;17.19;55.79;95345.31;5008758;28;20476;-65
2021/11/04 09:01:56;;;;;;;23.87;16.57;;;;;;;17.00;55.23;95336.59;5022839;28;20440;-63
2021/11/04 09:04:23;;;;;;;26.90;16.50;;;;;;;17.47;56.45;95326.94;5021544;28;20452;-65
2021/11/04 09:06:51;;;;;;;21.37;13.90;;;;;;;17.67;54.20;95324.00;5021186;28;20464;-63
2021/11/04 09:09:18;;;;;;;24.77;14.70;;;;;;;18.40;53.16;95308.97;5027909;28;20471;-64
2021/11/04 09:11:45;;;;;;;20.53;12.40;;;;;;;18.65;51.12;95305.84;5027657;28;20583;-63
2021/11/04 09:14:13;;;;;;;17.47;11.03;;;;;;;19.30;50.62;95302.91;5014433;28;20436;-64
2021/11/04 09:16:43;;;;;;;20.53;13.30;;;;;;;19.52;50.58;95301.09;5027951;28;20539;-64
2021/11/04 09:19:10;;;;;;;19.07;12.73;;;;;;;19.68;50.80;95301.53;5028275;28;20494;-63
2021/11/04 09:21:37;;;;;;;16.57;11.97;;;;;;;19.51;49.66;95306.69;5027760;28;20197;-66
2021/11/04 09:24:04;;;;;;;15.83;12.40;;;;;;;20.03;48.08;95298.00;5020093;28;20889;-66
2021/11/04 09:26:31;;;;;;;20.13;11.43;;;;;;;19.45;49.32;95310.56;5012080;28;20208;-63
2021/11/04 09:28:58;;;;;;;18.97;11.93;;;;;;;20.21;48.19;95289.06;5022533;28;20303;-64
2021/11/04 09:31:25;;;;;;;16.03;11.20;;;;;;;19.65;48.88;95302.13;5031391;28;21052;-64
2021/11/04 09:33:57;;;;;;;17.90;11.40;;;;;;;19.94;46.98;95299.81;5032168;28;20205;-63
2021/11/04 09:36:29;;;;;;;16.33;11.63;;;;;;;20.12;47.55;95296.19;5030419;28;20201;-64
2021/11/04 09:38:56;;;;;;;17.23;11.70;;;;;;;20.09;48.04;95307.41;5019983;28;20269;-63
2021/11/04 09:41:23;;;;;;;18.80;11.97;;;;;;;19.80;47.65;95309.72;5031265;28;20244;-64
2021/11/04 09:43:51;;;;;;;20.37;11.73;;;;;;;19.78;47.29;95306.63;5031950;28;20653;-64
2021/11/04 09:46:18;;;;;;;20.10;11.40;;;;;;;19.36;47.96;95310.47;5031825;28;20209;-63
2021/11/04 09:48:44;;;;;;;16.33;11.60;;;;;;;19.12;49.22;95318.69;5031523;28;20208;-64
2021/11/04 09:51:11;;;;;;;19.67;11.77;;;;;;;19.11;51.36;95301.19;5021146;28;20210;-63
2021/11/04 09:53:38;;;;;;;17.97;11.50;;;;;;;19.20;50.98;95299.38;5025447;28;20197;-63
2021/11/04 09:56:05;;;;;;;15.33;11.90;;;;;;;19.32;50.80;95316.72;5020961;28;20193;-64
2021/11/04 09:58:33;;;;;;;18.50;12.43;;;;;;;19.53;50.16;95293.88;5029910;28;20322;-64
2021/11/04 10:01:23;;;;;;;16.30;11.23;;;;;;;19.35;50.48;95297.50;5011769;28;20587;-64
2021/11/04 10:03:50;;;;;;;18.70;11.80;;;;;;;19.19;51.29;95289.84;5028011;28;20204;-63
2021/11/04 10:06:41;;;;;;;22.70;10.60;;;;;;;19.60;50.26;95283.63;5031058;28;20239;-63
2021/11/04 10:09:11;;;;;;;17.67;11.43;;;;;;;19.70;50.39;95294.81;5017364;28;20211;-65
2021/11/04 10:11:42;;;;;;;18.63;11.37;;;;;;;19.94;49.01;95265.25;5031211;28;20196;-64
2021/11/04 10:14:11;;;;;;;21.53;11.20;;;;;;;19.87;49.57;95259.59;5031702;28;20201;-64
2021/11/04 10:16:40;;;;;;;19.60;12.00;;;;;;;19.97;49.82;95260.09;5031130;28;20197;-65
2021/11/04 10:19:16;;;;;;;15.73;10.70;;;;;;;19.66;48.81;95247.84;5031277;28;20324;-65
2021/11/04 10:21:46;;;;;;;18.30;11.17;;;;;;;19.69;50.31;95249.94;5011213;28;20202;-64
2021/11/04 10:24:21;;;;;;;20.00;10.93;;;;;;;19.54;48.98;95259.06;5024564;28;20201;-65
2021/11/04 10:26:56;;;;;;;16.80;10.63;;;;;;;19.47;50.02;95253.34;5011253;28;20269;-65
2021/11/04 10:29:34;;;;;;;13.00;9.67;;;;;;;19.87;48.95;95248.94;5024296;28;20568;-64
2021/11/04 10:32:02;;;;;;;13.10;10.10;;;;;;;19.93;49.91;95250.38;5023517;28;20252;-64
2021/11/04 10:34:35;;;;;;;14.87;10.27;;;;;;;20.01;48.58;95237.13;5010863;28;20206;-63
2021/11/04 10:37:21;;;;;;;15.40;10.27;;;;;;;20.09;47.32;95240.91;5017328;28;20197;-63
2021/11/04 10:39:49;;;;;;;16.70;10.40;;;;;;;19.96;48.89;95223.16;5030456;28;20248;-64
2021/11/04 10:42:16;;;;;;;12.43;10.27;;;;;;;19.88;49.57;95232.69;5030451;28;20682;-64
2021/11/04 10:44:43;;;;;;;17.13;10.43;;;;;;;19.84;49.98;95225.59;5030817;28;20192;-64
2021/11/04 10:47:21;;;;;;;15.17;9.90;;;;;;;19.97;48.39;95208.78;5030104;28;20228;-64
2021/11/04 10:49:51;;;;;;;15.20;9.73;;;;;;;20.17;49.33;95221.56;5017891;28;21001;-64
2021/11/04 10:52:23;;;;;;;19.60;9.77;;;;;;;20.14;50.14;95217.59;5015722;28;20200;-64
2021/11/04 10:54:52;;;;;;;14.50;9.87;;;;;;;20.23;47.56;95216.88;5018426;28;20198;-64
2021/11/04 10:57:39;;;;;;;15.97;9.63;;;;;;;20.27;49.69;95208.00;5029025;28;20193;-64
2021/11/04 11:00:21;;;;;;;13.87;9.60;;;;;;;20.06;50.46;95212.25;5016253;28;20233;-64
2021/11/04 11:02:56;;;;;;;12.73;9.70;;;;;;;20.12;49.16;95200.41;5010303;28;20198;-66
2021/11/04 11:05:34;;;;;;;13.67;9.23;;;;;;;20.01;50.10;95204.41;5011590;28;20198;-63
2021/11/04 11:08:08;;;;;;;14.57;9.10;;;;;;;20.43;49.28;95193.16;5029744;28;20620;-63
2021/11/04 11:10:40;;;;;;;14.27;9.73;;;;;;;20.19;50.25;95200.75;5027485;28;20201;-63
2021/11/04 11:13:08;;;;;;;17.83;8.90;;;;;;;20.00;50.64;95192.19;5019176;28;20293;-64
2021/11/04 11:15:41;;;;;;;12.13;9.07;;;;;;;20.17;50.19;95187.78;5030006;28;20647;-65
2021/11/04 11:18:09;;;;;;;23.27;10.13;;;;;;;20.24;48.98;95192.63;5029576;28;20197;-64
2021/11/04 11:20:45;;;;;;;22.27;9.80;;;;;;;20.40;49.29;95180.47;5029563;28;20320;-65
2021/11/04 11:23:16;;;;;;;12.10;9.10;;;;;;;20.18;49.88;95183.25;5029536;28;20913;-64
2021/11/04 11:25:48;;;;;;;13.17;9.50;;;;;;;20.33;48.94;95169.50;5029923;28;20659;-63
2021/11/04 11:28:16;;;;;;;14.27;8.50;;;;;;;20.65;48.86;95171.75;5029206;28;20206;-64
2021/11/04 11:31:09;;;;;;;13.37;8.67;;;;;;;20.72;49.65;95181.94;5030140;28;20228;-63
2021/11/04 11:34:19;;;;;;;18.60;10.27;;;;;;;20.97;49.54;95168.63;5015305;28;20190;-64